createdAt,value
2023-01-17T00:02:11.966Z,97493.96
2023-01-17T00:04:43.275Z,97499.26
2023-01-17T00:07:14.362Z,97505.89
2023-01-17T00:09:45.557Z,97504.90
2023-01-17T00:11:59.890Z,97501.42
2023-01-17T00:14:12.425Z,97499.69
2023-01-17T00:16:24.911Z,97501.11
2023-01-17T00:18:37.376Z,97499.74
2023-01-17T00:21:08.572Z,97496.63
2023-01-17T00:24:00.916Z,97496.17
2023-01-17T00:26:19.587Z,97498.31
2023-01-17T00:28:36.051Z,97496.73
2023-01-17T00:30:48.731Z,97501.73
2023-01-17T00:33:01.314Z,97496.77
2023-01-17T00:35:14.269Z,97492.80
2023-01-17T00:37:26.809Z,97493.52
2023-01-17T00:39:39.298Z,97496.30
2023-01-17T00:41:51.836Z,97495.35
2023-01-17T00:44:22.827Z,97494.05
2023-01-17T00:46:53.926Z,97492.92
2023-01-17T00:49:25.782Z,97489.54
2023-01-17T00:51:57.217Z,97494.90
2023-01-17T00:54:28.989Z,97487.66
2023-01-17T00:57:00.220Z,97485.71
2023-01-17T00:59:31.355Z,97490.74
2023-01-17T01:02:02.528Z,97494.09
2023-01-17T01:04:33.566Z,97496.77
2023-01-17T01:07:04.529Z,97494.55
2023-01-17T01:09:35.777Z,97492.80
2023-01-17T01:12:07.355Z,97492.81
2023-01-17T01:14:38.499Z,97493.84
2023-01-17T01:17:09.371Z,97494.81
2023-01-17T01:19:40.653Z,97492.27
2023-01-17T01:22:11.795Z,97496.09
2023-01-17T01:24:43.006Z,97496.38
2023-01-17T01:27:14.059Z,97491.59
2023-01-17T01:29:45.283Z,97490.23
2023-01-17T01:32:16.473Z,97490.52
2023-01-17T01:34:28.991Z,97503.23
2023-01-17T01:36:41.715Z,97499.89
2023-01-17T01:38:54.575Z,97505.56
2023-01-17T01:41:07.277Z,97511.14
2023-01-17T01:43:39.173Z,97514.97
2023-01-17T01:45:56.255Z,97508.90
2023-01-17T01:48:34.615Z,97502.73
2023-01-17T01:50:49.348Z,97499.64
2023-01-17T01:53:05.982Z,97485.29
2023-01-17T01:55:29.134Z,97479.19
2023-01-17T01:57:46.511Z,97478.30
2023-01-17T02:00:03.877Z,97482.77
2023-01-17T02:02:16.631Z,97472.95
2023-01-17T02:04:29.381Z,97468.52
2023-01-17T02:06:45.714Z,97467.38
2023-01-17T02:09:02.295Z,97467.02
2023-01-17T02:11:15.129Z,97467.77
2023-01-17T02:13:28.349Z,97472.48
2023-01-17T02:16:29.405Z,97477.45
2023-01-17T02:19:22.960Z,97476.68
2023-01-17T02:22:12.446Z,97470.36
2023-01-17T02:24:54.121Z,97476.50
2023-01-17T02:27:27.250Z,97475.23
2023-01-17T02:30:14.165Z,97473.77
2023-01-17T02:32:47.663Z,97470.00
2023-01-17T02:35:03.353Z,97469.90
2023-01-17T02:37:34.767Z,97467.49
2023-01-17T02:39:58.289Z,97456.52
2023-01-17T02:42:16.498Z,97462.80
2023-01-17T02:44:29.096Z,97459.96
2023-01-17T02:46:46.990Z,97457.22
2023-01-17T02:49:00.476Z,97446.56
2023-01-17T02:51:28.979Z,97438.61
2023-01-17T02:53:59.879Z,97443.77
2023-01-17T02:56:44.758Z,97448.85
2023-01-17T02:59:12.517Z,97444.97
2023-01-17T03:01:47.925Z,97441.48
2023-01-17T03:04:23.476Z,97438.05
2023-01-17T03:06:57.532Z,97442.52
2023-01-17T03:09:10.693Z,97447.69
2023-01-17T03:11:23.308Z,97450.77
2023-01-17T03:13:36.942Z,97459.72
2023-01-17T03:15:49.670Z,97459.29
2023-01-17T03:18:07.512Z,97463.08
2023-01-17T03:20:22.345Z,97463.40
2023-01-17T03:22:35.074Z,97466.98
2023-01-17T03:24:48.110Z,97459.09
2023-01-17T03:27:00.663Z,97459.38
2023-01-17T03:29:14.579Z,97462.30
2023-01-17T03:31:27.105Z,97465.80
2023-01-17T03:33:39.885Z,97474.13
2023-01-17T03:35:54.581Z,97480.02
2023-01-17T03:38:07.409Z,97477.83
2023-01-17T03:40:19.985Z,97478.92
2023-01-17T03:42:32.509Z,97481.98
2023-01-17T03:44:45.065Z,97483.13
2023-01-17T03:46:57.625Z,97485.05
2023-01-17T03:49:10.197Z,97489.70
2023-01-17T03:51:23.152Z,97491.31
2023-01-17T03:53:35.689Z,97488.27
2023-01-17T03:55:48.428Z,97479.45
2023-01-17T03:58:01.007Z,97477.88
2023-01-17T04:00:13.975Z,97480.48
2023-01-17T04:02:26.545Z,97479.58
2023-01-17T04:04:39.135Z,97484.36
2023-01-17T04:06:51.683Z,97484.91
2023-01-17T04:09:04.239Z,97490.52
2023-01-17T04:11:16.812Z,97491.06
2023-01-17T04:13:29.379Z,97500.41
2023-01-17T04:15:42.364Z,97498.73
2023-01-17T04:17:55.052Z,97498.92
2023-01-17T04:20:13.992Z,97501.02
2023-01-17T04:22:26.595Z,97502.67
2023-01-17T04:24:39.187Z,97501.02
2023-01-17T04:26:51.780Z,97501.39
2023-01-17T04:29:04.671Z,97498.75
2023-01-17T04:31:17.420Z,97499.88
2023-01-17T04:33:30.267Z,97497.75
2023-01-17T04:35:42.781Z,97491.55
2023-01-17T04:37:55.300Z,97485.28
2023-01-17T04:40:08.782Z,97490.66
2023-01-17T04:42:21.450Z,97486.54
2023-01-17T04:44:34.022Z,97488.70
2023-01-17T04:46:46.607Z,97488.68
2023-01-17T04:49:00.437Z,97492.52
2023-01-17T04:51:12.996Z,97487.11
2023-01-17T04:53:25.543Z,97485.69
2023-01-17T04:55:38.115Z,97477.69
2023-01-17T04:57:50.659Z,97480.67
2023-01-17T05:00:04.566Z,97484.80
2023-01-17T05:02:17.294Z,97490.34
2023-01-17T05:04:29.918Z,97491.30
2023-01-17T05:06:44.656Z,97497.79
2023-01-17T05:08:57.215Z,97492.67
2023-01-17T05:11:09.837Z,97484.42
2023-01-17T05:13:22.342Z,97486.52
2023-01-17T05:15:36.498Z,97487.45
2023-01-17T05:17:51.129Z,97489.65
2023-01-17T05:20:04.034Z,97482.09
2023-01-17T05:22:16.543Z,97481.23
2023-01-17T05:24:30.876Z,97483.23
2023-01-17T05:26:43.409Z,97482.52
2023-01-17T05:28:56.020Z,97480.21
2023-01-17T05:31:08.639Z,97476.92
2023-01-17T05:33:21.250Z,97479.59
2023-01-17T05:35:33.886Z,97483.86
2023-01-17T05:37:49.089Z,97484.42
2023-01-17T05:40:01.804Z,97488.29
2023-01-17T05:42:14.313Z,97491.21
2023-01-17T05:44:27.657Z,97490.48
2023-01-17T05:46:40.308Z,97487.27
2023-01-17T05:48:52.905Z,97485.33
2023-01-17T05:51:05.583Z,97486.73
2023-01-17T05:53:18.212Z,97491.48
2023-01-17T05:55:31.343Z,97499.70
2023-01-17T05:57:43.888Z,97504.99
2023-01-17T05:59:56.443Z,97509.73
2023-01-17T06:02:08.964Z,97511.98
2023-01-17T06:04:21.590Z,97512.45
2023-01-17T06:06:34.210Z,97513.98
2023-01-17T06:08:46.978Z,97516.32
2023-01-17T06:10:59.540Z,97521.10
2023-01-17T06:13:15.146Z,97526.71
2023-01-17T06:15:27.808Z,97535.61
2023-01-17T06:17:40.745Z,97538.06
2023-01-17T06:19:53.405Z,97542.33
2023-01-17T06:22:05.978Z,97537.01
2023-01-17T06:24:18.529Z,97537.85
2023-01-17T06:26:31.078Z,97541.20
2023-01-17T06:28:43.685Z,97543.47
2023-01-17T06:30:56.334Z,97543.85
2023-01-17T06:33:09.877Z,97544.23
2023-01-17T06:35:22.893Z,97546.09
2023-01-17T06:37:35.420Z,97544.12
2023-01-17T06:39:48.987Z,97546.12
2023-01-17T06:42:01.709Z,97550.08
2023-01-17T06:44:14.220Z,97551.59
2023-01-17T06:46:26.893Z,97555.73
2023-01-17T06:48:39.463Z,97559.08
2023-01-17T06:50:52.096Z,97563.95
2023-01-17T06:53:06.637Z,97567.77
2023-01-17T06:55:19.201Z,97570.27
2023-01-17T06:57:31.917Z,97573.33
2023-01-17T06:59:44.549Z,97570.54
2023-01-17T07:01:57.064Z,97572.77
2023-01-17T07:04:09.663Z,97572.05
2023-01-17T07:06:23.801Z,97576.54
2023-01-17T07:08:36.465Z,97583.30
2023-01-17T07:10:49.124Z,97587.30
2023-01-17T07:13:01.699Z,97593.77
2023-01-17T07:15:14.477Z,97593.02
2023-01-17T07:17:27.051Z,97595.23
2023-01-17T07:19:39.615Z,97600.01
2023-01-17T07:21:55.477Z,97595.33
2023-01-17T07:24:09.256Z,97595.66
2023-01-17T07:26:21.850Z,97598.52
2023-01-17T07:28:34.915Z,97601.91
2023-01-17T07:30:47.914Z,97603.50
2023-01-17T07:33:01.474Z,97607.48
2023-01-17T07:35:14.189Z,97607.77
2023-01-17T07:37:26.730Z,97607.67
2023-01-17T07:39:39.299Z,97606.23
2023-01-17T07:41:51.883Z,97612.15
2023-01-17T07:44:04.610Z,97617.88
2023-01-17T07:46:17.816Z,97614.79
2023-01-17T07:48:30.766Z,97616.66
2023-01-17T07:50:43.541Z,97619.71
2023-01-17T07:52:56.376Z,97623.27
2023-01-17T07:55:09.493Z,97617.17
2023-01-17T07:57:22.110Z,97618.91
2023-01-17T07:59:34.655Z,97621.50
2023-01-17T08:01:47.411Z,97619.14
2023-01-17T08:04:00.184Z,97622.92
2023-01-17T08:06:19.250Z,97624.73
2023-01-17T08:08:31.800Z,97630.39
2023-01-17T08:10:44.595Z,97631.88
2023-01-17T08:12:57.187Z,97632.31
2023-01-17T08:15:10.561Z,97635.84
2023-01-17T08:17:23.245Z,97640.19
2023-01-17T08:19:35.884Z,97647.21
2023-01-17T08:21:48.456Z,97651.60
2023-01-17T08:24:01.029Z,97654.53
2023-01-17T08:26:18.505Z,97657.67
2023-01-17T08:28:31.049Z,97657.50
2023-01-17T08:30:43.790Z,97659.55
2023-01-17T08:32:56.431Z,97661.70
2023-01-17T08:37:39.150Z,97669.08
2023-01-17T08:39:51.893Z,97674.46
2023-01-17T08:42:04.692Z,97679.39
2023-01-17T08:44:17.339Z,97673.92
2023-01-17T08:46:32.759Z,97676.64
2023-01-17T08:48:45.749Z,97674.83
2023-01-17T08:51:04.304Z,97672.82
2023-01-17T08:53:18.123Z,97672.79
2023-01-17T08:55:30.729Z,97673.88
2023-01-17T08:57:43.325Z,97678.42
2023-01-17T08:59:55.864Z,97678.31
2023-01-17T09:02:14.929Z,97680.84
2023-01-17T09:04:27.719Z,97683.83
2023-01-17T09:06:43.273Z,97680.94
2023-01-17T09:08:56.982Z,97682.14
2023-01-17T09:11:12.050Z,97684.83
2023-01-17T09:13:24.621Z,97686.80
2023-01-17T09:15:37.193Z,97681.54
2023-01-17T09:17:50.064Z,97685.17
2023-01-17T09:20:02.729Z,97685.27
2023-01-17T09:22:15.528Z,97689.58
2023-01-17T09:24:28.025Z,97691.66
2023-01-17T09:26:40.775Z,97694.54
2023-01-17T09:28:53.648Z,97695.98
2023-01-17T09:31:08.159Z,97698.73
2023-01-17T09:33:21.439Z,97690.55
2023-01-17T09:35:34.409Z,97690.09
2023-01-17T09:37:50.963Z,97688.02
2023-01-17T09:40:03.921Z,97692.41
2023-01-17T09:42:45.812Z,97694.03
2023-01-17T09:44:59.151Z,97692.33
2023-01-17T09:47:42.239Z,97688.14
2023-01-17T09:50:00.783Z,97683.93
2023-01-17T09:52:18.640Z,97688.48
2023-01-17T09:54:39.996Z,97685.29
2023-01-17T09:57:03.820Z,97680.06
2023-01-17T09:59:33.175Z,97679.75
2023-01-17T10:02:07.259Z,97684.38
2023-01-17T10:04:34.864Z,97681.59
2023-01-17T10:07:27.560Z,97685.58
2023-01-17T10:09:47.676Z,97688.27
2023-01-17T10:12:19.082Z,97692.05
2023-01-17T10:14:49.750Z,97690.40
2023-01-17T10:17:23.631Z,97694.17
2023-01-17T10:20:01.518Z,97698.13
2023-01-17T10:22:51.995Z,97699.05
2023-01-17T10:25:23.540Z,97702.16
2023-01-17T10:27:46.005Z,97702.17
2023-01-17T10:30:00.989Z,97701.17
2023-01-17T10:32:14.659Z,97704.05
2023-01-17T10:34:34.735Z,97702.66
2023-01-17T10:36:52.908Z,97704.13
2023-01-17T10:39:19.195Z,97703.44
2023-01-17T10:41:40.575Z,97706.29
2023-01-17T10:44:20.775Z,97710.48
2023-01-17T10:46:42.882Z,97710.17
2023-01-17T10:48:56.964Z,97711.41
2023-01-17T10:51:31.261Z,97720.52
2023-01-17T10:54:21.425Z,97717.55
2023-01-17T10:56:34.910Z,97721.80
2023-01-17T10:58:49.067Z,97726.55
2023-01-17T11:01:07.220Z,97726.98
2023-01-17T11:03:24.605Z,97728.44
2023-01-17T11:05:37.729Z,97734.22
2023-01-17T11:07:58.677Z,97736.95
2023-01-17T11:10:38.022Z,97732.23
2023-01-17T11:12:50.545Z,97728.39
2023-01-17T11:15:09.204Z,97722.79
2023-01-17T11:17:22.006Z,97726.25
2023-01-17T11:19:36.251Z,97722.15
2023-01-17T11:21:54.572Z,97726.59
2023-01-17T11:24:18.721Z,97719.97
2023-01-17T11:26:34.459Z,97719.76
2023-01-17T11:28:47.047Z,97714.87
2023-01-17T11:31:03.505Z,97711.48
2023-01-17T11:33:47.764Z,97712.33
2023-01-17T11:36:00.432Z,97713.02
2023-01-17T11:38:21.353Z,97717.41
2023-01-17T11:40:42.431Z,97714.79
2023-01-17T11:43:18.778Z,97716.05
2023-01-17T11:45:34.336Z,97709.17
2023-01-17T11:47:46.917Z,97708.50
2023-01-17T11:49:59.424Z,97707.37
2023-01-17T11:52:22.385Z,97713.68
2023-01-17T11:54:40.435Z,97711.00
2023-01-17T11:56:58.110Z,97712.05
2023-01-17T11:59:20.272Z,97706.55
2023-01-17T12:01:45.809Z,97706.17
2023-01-17T12:04:08.532Z,97706.17
2023-01-17T12:06:56.866Z,97708.66
2023-01-17T12:09:29.857Z,97702.07
2023-01-17T12:12:30.613Z,97703.56
2023-01-17T12:14:50.439Z,97702.39
2023-01-17T12:17:22.625Z,97702.05
2023-01-17T12:19:50.430Z,97698.66
2023-01-17T12:22:20.705Z,97695.64
2023-01-17T12:24:39.455Z,97695.14
2023-01-17T12:27:08.520Z,97693.75
2023-01-17T12:29:41.507Z,97695.17
2023-01-17T12:32:09.027Z,97690.95
2023-01-17T12:34:30.022Z,97686.58
2023-01-17T12:36:49.360Z,97687.55
2023-01-17T12:39:07.847Z,97686.64
2023-01-17T12:41:30.705Z,97694.49
2023-01-17T12:43:44.769Z,97688.88
2023-01-17T12:45:59.208Z,97693.77
2023-01-17T12:48:17.017Z,97692.45
2023-01-17T12:50:41.038Z,97690.98
2023-01-17T12:53:02.995Z,97687.08
2023-01-17T12:55:29.717Z,97688.88
2023-01-17T12:57:47.727Z,97687.14
2023-01-17T13:00:19.589Z,97688.40
2023-01-17T13:02:54.004Z,97689.02
2023-01-17T13:05:24.586Z,97690.38
2023-01-17T13:07:49.519Z,97691.85
2023-01-17T13:10:08.025Z,97701.27
2023-01-17T13:12:22.620Z,97702.04
2023-01-17T13:14:35.918Z,97707.17
2023-01-17T13:16:59.730Z,97711.89
2023-01-17T13:19:53.141Z,97710.16
2023-01-17T13:22:17.344Z,97717.98
2023-01-17T13:24:40.455Z,97722.97
2023-01-17T13:26:56.339Z,97737.16
2023-01-17T13:30:02.882Z,97748.92
2023-01-17T13:32:49.941Z,97756.73
2023-01-17T13:35:33.469Z,97767.95
2023-01-17T13:38:14.805Z,97776.34
2023-01-17T13:40:39.624Z,97788.42
2023-01-17T13:43:00.969Z,97792.58
2023-01-17T13:45:35.713Z,97797.30
2023-01-17T13:47:48.623Z,97806.21
2023-01-17T13:50:01.324Z,97809.20
2023-01-17T13:52:20.218Z,97813.60
2023-01-17T13:54:33.838Z,97810.39
2023-01-17T13:56:46.546Z,97806.85
2023-01-17T13:59:03.693Z,97805.46
2023-01-17T14:01:22.403Z,97803.39
2023-01-17T14:03:50.480Z,97804.98
2023-01-17T14:06:03.204Z,97813.31
2023-01-17T14:08:18.677Z,97813.97
2023-01-17T14:10:40.905Z,97820.04
2023-01-17T14:12:54.779Z,97824.69
2023-01-17T14:15:20.523Z,97832.71
2023-01-17T14:17:44.315Z,97839.91
2023-01-17T14:20:09.195Z,97847.71
2023-01-17T14:22:27.873Z,97853.65
2023-01-17T14:25:11.810Z,97861.65
2023-01-17T14:27:26.225Z,97869.55
2023-01-17T14:29:59.308Z,97875.36
2023-01-17T14:32:15.632Z,97887.15
2023-01-17T14:34:28.540Z,97895.92
2023-01-17T14:36:41.174Z,97903.72
2023-01-17T14:38:53.923Z,97914.37
2023-01-17T14:41:09.822Z,97913.73
2023-01-17T14:43:32.900Z,97919.31
2023-01-17T14:45:46.484Z,97917.59
2023-01-17T14:48:02.398Z,97918.52
2023-01-17T14:50:17.675Z,97917.06
2023-01-17T14:52:30.237Z,97915.25
2023-01-17T14:54:51.506Z,97918.40
2023-01-17T14:57:29.148Z,97916.67
2023-01-17T14:59:41.828Z,97924.75
2023-01-17T15:02:07.716Z,97925.74
2023-01-17T15:04:29.965Z,97924.40
2023-01-17T15:06:43.811Z,97926.70
2023-01-17T15:08:57.388Z,97926.31
2023-01-17T15:11:17.698Z,97928.67
2023-01-17T15:13:51.618Z,97926.08
2023-01-17T15:16:07.624Z,97930.95
2023-01-17T15:18:25.068Z,97931.08
2023-01-17T15:20:38.172Z,97929.58
2023-01-17T15:22:51.219Z,97929.20
2023-01-17T15:25:05.098Z,97931.39
2023-01-17T15:27:18.050Z,97932.72
2023-01-17T15:29:33.657Z,97931.38
2023-01-17T15:31:49.977Z,97930.60
2023-01-17T15:34:06.304Z,97929.41
2023-01-17T15:36:21.652Z,97930.06
2023-01-17T15:38:39.322Z,97932.49
2023-01-17T15:40:52.398Z,97938.02
2023-01-17T15:43:06.672Z,97938.55
2023-01-17T15:45:27.578Z,97937.16
2023-01-17T15:47:40.229Z,97926.94
2023-01-17T15:49:53.230Z,97925.65
2023-01-17T15:52:05.888Z,97925.00
2023-01-17T15:54:33.169Z,97921.33
2023-01-17T15:56:45.741Z,97919.61
2023-01-17T15:59:37.886Z,97919.77
2023-01-17T16:01:58.127Z,97918.80
2023-01-17T16:04:32.392Z,97918.95
2023-01-17T16:06:47.900Z,97913.90
2023-01-17T16:09:00.470Z,97911.02
2023-01-17T16:11:15.066Z,97910.86
2023-01-17T16:13:31.744Z,97912.15
2023-01-17T16:15:44.368Z,97912.89
2023-01-17T16:18:01.357Z,97913.74
2023-01-17T16:20:28.181Z,97913.27
2023-01-17T16:22:41.166Z,97912.48
2023-01-17T16:24:59.276Z,97911.58
2023-01-17T16:27:13.287Z,97912.61
2023-01-17T16:29:26.156Z,97910.49
2023-01-17T16:31:39.126Z,97907.56
2023-01-17T16:33:51.844Z,97905.81
2023-01-17T16:36:04.955Z,97907.29
2023-01-17T16:38:19.024Z,97904.81
2023-01-17T16:40:34.255Z,97899.09
2023-01-17T16:42:47.355Z,97900.19
2023-01-17T16:44:59.913Z,97901.12
2023-01-17T16:47:12.613Z,97900.12
2023-01-17T16:49:25.258Z,97899.52
2023-01-17T16:51:37.806Z,97902.96
2023-01-17T16:53:50.399Z,97897.27
2023-01-17T16:56:09.892Z,97894.08
2023-01-17T16:58:22.571Z,97894.36
2023-01-17T17:00:35.056Z,97896.30
2023-01-17T17:02:51.155Z,97903.30
2023-01-17T17:05:05.355Z,97904.67
2023-01-17T17:07:17.901Z,97912.55
2023-01-17T17:09:30.372Z,97916.38
2023-01-17T17:11:43.014Z,97913.77
2023-01-17T17:13:55.579Z,97909.73
2023-01-17T17:16:26.737Z,97908.38
2023-01-17T17:18:39.397Z,97912.19
2023-01-17T17:20:52.050Z,97911.78
2023-01-17T17:23:04.634Z,97912.42
2023-01-17T17:25:18.848Z,97910.86
2023-01-17T17:27:31.551Z,97915.10
2023-01-17T17:29:44.080Z,97919.27
2023-01-17T17:31:56.648Z,97927.57
2023-01-17T17:34:12.193Z,97931.02
2023-01-17T17:36:25.059Z,97929.02
2023-01-17T17:38:50.584Z,97921.69
2023-01-17T17:42:20.601Z,97910.98
2023-01-17T17:44:33.205Z,97914.24
2023-01-17T17:46:49.207Z,97918.59
2023-01-17T17:49:02.162Z,97917.57
2023-01-17T17:51:36.944Z,97921.56
2023-01-17T17:53:49.952Z,97928.63
2023-01-17T17:56:04.510Z,97927.03
2023-01-17T17:58:17.294Z,97933.52
2023-01-17T18:00:29.941Z,97938.99
2023-01-17T18:02:42.534Z,97942.37
2023-01-17T18:04:55.193Z,97944.54
2023-01-17T18:07:07.755Z,97941.52
2023-01-17T18:09:20.255Z,97947.71
2023-01-17T18:11:33.251Z,97950.55
2023-01-17T18:13:50.518Z,97952.33
2023-01-17T18:16:07.803Z,97959.55
2023-01-17T18:18:20.921Z,97966.95
2023-01-17T18:20:33.529Z,97968.56
2023-01-17T18:22:46.033Z,97968.98
2023-01-17T18:24:58.623Z,97963.70
2023-01-17T18:27:19.799Z,97960.70
2023-01-17T18:29:32.415Z,97952.98
2023-01-17T18:31:46.599Z,97952.08
2023-01-17T18:34:01.188Z,97944.89
2023-01-17T18:36:14.116Z,97946.08
2023-01-17T18:38:31.407Z,97954.29
2023-01-17T18:40:44.008Z,97967.53
2023-01-17T18:42:57.014Z,97975.46
2023-01-17T18:45:10.404Z,97982.55
2023-01-17T18:47:23.041Z,97987.61
2023-01-17T18:49:35.822Z,97996.42
2023-01-17T18:52:19.698Z,98002.17
2023-01-17T18:54:32.306Z,98001.31
2023-01-17T18:56:45.301Z,97994.34
2023-01-17T18:58:58.192Z,97992.98
2023-01-17T19:02:19.985Z,97984.16
2023-01-17T19:04:33.967Z,97984.19
2023-01-17T19:06:47.985Z,97980.67
2023-01-17T19:09:00.676Z,97995.10
2023-01-17T19:11:13.259Z,98008.30
2023-01-17T19:13:26.517Z,98014.29
2023-01-17T19:15:39.076Z,98028.78
2023-01-17T19:17:51.633Z,98028.19
2023-01-17T19:20:06.481Z,98018.88
2023-01-17T19:22:19.028Z,98008.79
2023-01-17T19:24:31.617Z,97998.49
2023-01-17T19:26:44.414Z,97992.65
2023-01-17T19:28:59.042Z,97989.52
2023-01-17T19:31:12.927Z,97987.56
2023-01-17T19:33:25.515Z,97988.12
2023-01-17T19:35:38.086Z,97990.21
2023-01-17T19:37:53.231Z,97989.35
2023-01-17T19:40:08.196Z,97989.84
2023-01-17T19:42:20.743Z,97984.54
2023-01-17T19:44:33.305Z,97985.75
2023-01-17T19:46:46.133Z,97993.53
2023-01-17T19:48:59.637Z,98001.59
2023-01-17T19:51:14.656Z,98002.20
2023-01-17T19:53:27.270Z,98000.45
2023-01-17T19:55:39.955Z,97993.58
2023-01-17T19:57:52.629Z,97985.48
2023-01-17T20:00:13.964Z,97984.63
2023-01-17T20:02:27.543Z,97982.74
2023-01-17T20:04:40.383Z,97977.16
2023-01-17T20:06:53.380Z,97978.92
2023-01-17T20:09:06.527Z,97977.26
2023-01-17T20:11:22.342Z,97979.92
2023-01-17T20:13:34.989Z,97979.38
2023-01-17T20:15:47.555Z,97976.39
2023-01-17T20:18:02.081Z,97983.80
2023-01-17T20:20:15.737Z,97987.48
2023-01-17T20:22:28.425Z,97997.63
2023-01-17T20:24:41.167Z,98004.69
2023-01-17T20:26:53.711Z,98009.21
2023-01-17T20:29:10.842Z,98005.64
2023-01-17T20:31:25.848Z,98004.43
2023-01-17T20:33:39.758Z,98001.08
2023-01-17T20:36:08.733Z,98004.91
2023-01-17T20:38:22.566Z,98011.38
2023-01-17T20:40:35.544Z,98005.20
2023-01-17T20:42:48.501Z,98006.12
2023-01-17T20:45:01.917Z,98007.42
2023-01-17T20:47:14.498Z,98010.33
2023-01-17T20:49:27.190Z,97996.52
2023-01-17T20:51:40.197Z,97996.17
2023-01-17T20:53:58.258Z,98000.80
2023-01-17T20:56:12.252Z,98003.25
2023-01-17T20:58:24.817Z,98009.34
2023-01-17T21:00:38.003Z,98017.61
2023-01-17T21:02:50.711Z,98019.27
2023-01-17T21:05:03.672Z,98021.91
2023-01-17T21:07:17.681Z,98017.24
2023-01-17T21:09:30.204Z,98009.42
2023-01-17T21:11:43.059Z,98008.46
2023-01-17T21:13:57.317Z,98003.79
2023-01-17T21:16:16.356Z,97997.66
2023-01-17T21:18:31.822Z,97994.81
2023-01-17T21:20:44.371Z,97992.48
2023-01-17T21:22:56.868Z,97996.08
2023-01-17T21:25:10.013Z,98002.44
2023-01-17T21:27:22.628Z,98007.42
2023-01-17T21:29:36.502Z,98005.27
2023-01-17T21:31:49.250Z,97999.88
2023-01-17T21:34:05.551Z,97992.55
2023-01-17T21:36:20.444Z,97980.71
2023-01-17T21:38:33.009Z,97973.98
2023-01-17T21:40:45.805Z,97971.45
2023-01-17T21:42:58.342Z,97965.78
2023-01-17T21:45:11.349Z,97958.08
2023-01-17T21:47:24.095Z,97959.08
2023-01-17T21:49:36.628Z,97964.30
2023-01-17T21:51:55.404Z,97973.31
2023-01-17T21:54:08.825Z,97976.91
2023-01-17T21:56:39.859Z,97978.15
2023-01-17T21:58:54.996Z,97985.16
2023-01-17T22:01:10.849Z,97984.54
2023-01-17T22:03:24.563Z,97984.21
2023-01-17T22:05:37.142Z,97979.17
2023-01-17T22:08:10.463Z,97981.43
2023-01-17T22:10:22.961Z,97976.38
2023-01-17T22:12:35.599Z,97967.45
2023-01-17T22:14:48.113Z,97966.79
2023-01-17T22:17:00.665Z,97965.26
2023-01-17T22:19:13.182Z,97966.09
2023-01-17T22:21:28.277Z,97957.30
2023-01-17T22:23:47.060Z,97958.36
2023-01-17T22:26:04.947Z,97959.10
2023-01-17T22:28:17.633Z,97962.31
2023-01-17T22:30:30.218Z,97965.52
2023-01-17T22:32:42.810Z,97963.91
2023-01-17T22:34:55.366Z,97965.36
2023-01-17T22:37:09.950Z,97967.20
2023-01-17T22:39:22.554Z,97965.54
2023-01-17T22:41:38.130Z,97956.03
2023-01-17T22:43:57.059Z,97955.80
2023-01-17T22:46:12.860Z,97956.61
2023-01-17T22:48:25.659Z,97956.48
2023-01-17T22:50:38.347Z,97959.27
2023-01-17T22:52:50.886Z,97965.35
2023-01-17T22:55:03.651Z,97972.55
2023-01-17T22:57:16.348Z,97977.11
2023-01-17T22:59:28.955Z,97975.89
2023-01-17T23:01:41.502Z,97976.70
2023-01-17T23:03:57.022Z,97968.14
2023-01-17T23:06:19.091Z,97955.10
2023-01-17T23:08:32.023Z,97949.78
2023-01-17T23:11:03.283Z,97941.42
2023-01-17T23:13:15.819Z,97934.63
2023-01-17T23:15:48.644Z,97931.07
2023-01-17T23:18:19.747Z,97937.21
2023-01-17T23:20:32.241Z,97948.16
2023-01-17T23:22:44.895Z,97954.95
2023-01-17T23:25:07.049Z,97960.61
2023-01-17T23:27:42.780Z,97965.67
2023-01-17T23:29:55.316Z,97964.41
2023-01-17T23:32:07.845Z,97962.49
2023-01-17T23:34:20.583Z,97952.73
2023-01-17T23:36:33.103Z,97952.08
2023-01-17T23:38:45.587Z,97943.85
2023-01-17T23:41:24.877Z,97936.03
2023-01-17T23:43:37.508Z,97936.21
2023-01-17T23:47:40.177Z,97937.39
2023-01-17T23:49:52.687Z,97927.15
2023-01-17T23:52:06.010Z,97920.81
2023-01-17T23:54:19.079Z,97925.37
2023-01-17T23:56:31.599Z,97926.67
2023-01-17T23:58:44.654Z,97925.11
